sensor_id;sensor_type;location;lat;lon;timestamp;P1;durP1;ratioP1;P2;durP2;ratioP2
14330;SDS011;7249;49.376;11.080;2024-03-23T00:55:34;3.83;;;3.03;;
14330;SDS011;7249;49.376;11.080;2024-03-23T00:58:00;3.00;;;2.50;;
14330;SDS011;7249;49.376;11.080;2024-03-23T01:00:25;4.57;;;3.13;;
14330;SDS011;7249;49.376;11.080;2024-03-23T01:02:51;3.97;;;3.07;;
14330;SDS011;7249;49.376;11.080;2024-03-23T01:05:17;4.87;;;3.17;;
14330;SDS011;7249;49.376;11.080;2024-03-23T01:07:42;4.70;;;3.67;;
14330;SDS011;7249;49.376;11.080;2024-03-23T01:10:08;4.37;;;3.40;;
14330;SDS011;7249;49.376;11.080;2024-03-23T01:12:34;6.37;;;3.57;;
14330;SDS011;7249;49.376;11.080;2024-03-23T01:14:59;8.47;;;3.53;;
14330;SDS011;7249;49.376;11.080;2024-03-23T01:17:25;4.80;;;3.70;;
14330;SDS011;7249;49.376;11.080;2024-03-23T01:19:51;3.43;;;2.83;;
14330;SDS011;7249;49.376;11.080;2024-03-23T01:22:16;9.47;;;3.37;;
14330;SDS011;7249;49.376;11.080;2024-03-23T01:24:42;4.77;;;3.10;;
14330;SDS011;7249;49.376;11.080;2024-03-23T01:27:08;4.37;;;3.40;;
14330;SDS011;7249;49.376;11.080;2024-03-23T01:29:34;5.67;;;4.20;;
14330;SDS011;7249;49.376;11.080;2024-03-23T01:31:59;3.90;;;3.30;;
14330;SDS011;7249;49.376;11.080;2024-03-23T01:34:25;5.37;;;3.17;;
14330;SDS011;7249;49.376;11.080;2024-03-23T01:36:51;5.80;;;4.00;;
14330;SDS011;7249;49.376;11.080;2024-03-23T01:39:16;4.30;;;3.40;;
14330;SDS011;7249;49.376;11.080;2024-03-23T01:41:42;4.70;;;4.13;;
14330;SDS011;7249;49.376;11.080;2024-03-23T01:44:08;5.43;;;3.40;;
14330;SDS011;7249;49.376;11.080;2024-03-23T01:46:35;5.37;;;3.60;;
14330;SDS011;7249;49.376;11.080;2024-03-23T01:49:01;4.57;;;3.27;;
14330;SDS011;7249;49.376;11.080;2024-03-23T01:51:27;5.03;;;3.23;;
14330;SDS011;7249;49.376;11.080;2024-03-23T01:53:54;4.13;;;3.50;;
14330;SDS011;7249;49.376;11.080;2024-03-23T01:56:22;5.23;;;3.70;;
14330;SDS011;7249;49.376;11.080;2024-03-23T01:58:48;4.43;;;3.50;;
14330;SDS011;7249;49.376;11.080;2024-03-23T02:01:13;4.77;;;3.37;;
14330;SDS011;7249;49.376;11.080;2024-03-23T02:03:39;5.67;;;3.67;;
14330;SDS011;7249;49.376;11.080;2024-03-23T02:06:04;6.00;;;3.47;;
14330;SDS011;7249;49.376;11.080;2024-03-23T02:08:32;3.37;;;3.07;;
14330;SDS011;7249;49.376;11.080;2024-03-23T02:10:58;4.47;;;3.23;;
14330;SDS011;7249;49.376;11.080;2024-03-23T02:13:24;4.83;;;3.70;;
14330;SDS011;7249;49.376;11.080;2024-03-23T02:15:49;8.73;;;3.90;;
14330;SDS011;7249;49.376;11.080;2024-03-23T02:18:15;5.10;;;3.37;;
14330;SDS011;7249;49.376;11.080;2024-03-23T02:20:41;5.77;;;3.57;;
14330;SDS011;7249;49.376;11.080;2024-03-23T02:23:12;3.47;;;2.93;;
14330;SDS011;7249;49.376;11.080;2024-03-23T02:25:43;3.77;;;3.37;;
14330;SDS011;7249;49.376;11.080;2024-03-23T02:28:09;4.40;;;3.63;;
14330;SDS011;7249;49.376;11.080;2024-03-23T02:30:35;5.23;;;3.47;;
14330;SDS011;7249;49.376;11.080;2024-03-23T02:33:01;4.43;;;3.20;;
14330;SDS011;7249;49.376;11.080;2024-03-23T02:35:27;5.43;;;3.50;;
14330;SDS011;7249;49.376;11.080;2024-03-23T02:37:53;5.23;;;3.80;;
14330;SDS011;7249;49.376;11.080;2024-03-23T02:40:19;5.93;;;3.50;;
14330;SDS011;7249;49.376;11.080;2024-03-23T02:42:45;5.07;;;3.47;;
14330;SDS011;7249;49.376;11.080;2024-03-23T02:45:11;3.33;;;3.03;;
14330;SDS011;7249;49.376;11.080;2024-03-23T02:47:37;7.63;;;3.40;;
14330;SDS011;7249;49.376;11.080;2024-03-23T02:50:03;4.43;;;3.10;;
14330;SDS011;7249;49.376;11.080;2024-03-23T02:52:29;8.43;;;3.37;;
14330;SDS011;7249;49.376;11.080;2024-03-23T02:54:55;5.73;;;3.10;;
14330;SDS011;7249;49.376;11.080;2024-03-23T02:57:21;5.80;;;3.23;;
14330;SDS011;7249;49.376;11.080;2024-03-23T02:59:47;4.87;;;3.53;;
14330;SDS011;7249;49.376;11.080;2024-03-23T03:02:13;6.10;;;3.13;;
14330;SDS011;7249;49.376;11.080;2024-03-23T03:04:40;3.93;;;2.90;;
14330;SDS011;7249;49.376;11.080;2024-03-23T03:07:06;3.80;;;3.17;;
14330;SDS011;7249;49.376;11.080;2024-03-23T03:09:32;5.43;;;3.23;;
14330;SDS011;7249;49.376;11.080;2024-03-23T03:11:58;3.30;;;2.63;;
14330;SDS011;7249;49.376;11.080;2024-03-23T03:14:23;4.17;;;2.90;;
14330;SDS011;7249;49.376;11.080;2024-03-23T03:16:49;5.53;;;3.50;;
14330;SDS011;7249;49.376;11.080;2024-03-23T03:19:15;4.27;;;2.90;;
14330;SDS011;7249;49.376;11.080;2024-03-23T03:21:41;4.60;;;3.40;;
14330;SDS011;7249;49.376;11.080;2024-03-23T03:24:07;5.53;;;3.43;;
14330;SDS011;7249;49.376;11.080;2024-03-23T03:26:33;5.70;;;3.80;;
14330;SDS011;7249;49.376;11.080;2024-03-23T03:28:58;4.30;;;3.27;;
14330;SDS011;7249;49.376;11.080;2024-03-23T03:31:24;5.20;;;2.97;;
14330;SDS011;7249;49.376;11.080;2024-03-23T03:33:50;6.47;;;3.67;;
14330;SDS011;7249;49.376;11.080;2024-03-23T03:36:16;5.27;;;2.87;;
14330;SDS011;7249;49.376;11.080;2024-03-23T03:38:42;6.40;;;3.93;;
14330;SDS011;7249;49.376;11.080;2024-03-23T03:41:07;5.03;;;3.57;;
14330;SDS011;7249;49.376;11.080;2024-03-23T03:43:33;6.03;;;3.70;;
14330;SDS011;7249;49.376;11.080;2024-03-23T03:45:59;5.43;;;3.40;;
14330;SDS011;7249;49.376;11.080;2024-03-23T03:48:25;5.17;;;3.87;;
14330;SDS011;7249;49.376;11.080;2024-03-23T03:50:52;5.13;;;4.10;;
14330;SDS011;7249;49.376;11.080;2024-03-23T03:53:18;4.67;;;3.50;;
14330;SDS011;7249;49.376;11.080;2024-03-23T03:55:44;5.37;;;3.30;;
14330;SDS011;7249;49.376;11.080;2024-03-23T03:58:10;6.07;;;4.20;;
14330;SDS011;7249;49.376;11.080;2024-03-23T04:00:35;6.20;;;4.03;;
14330;SDS011;7249;49.376;11.080;2024-03-23T04:03:01;4.90;;;3.87;;
14330;SDS011;7249;49.376;11.080;2024-03-23T04:05:27;6.43;;;3.73;;
14330;SDS011;7249;49.376;11.080;2024-03-23T04:07:53;5.70;;;3.87;;
14330;SDS011;7249;49.376;11.080;2024-03-23T04:10:19;7.33;;;4.30;;
14330;SDS011;7249;49.376;11.080;2024-03-23T04:12:45;7.33;;;3.57;;
14330;SDS011;7249;49.376;11.080;2024-03-23T04:15:12;5.00;;;3.63;;
14330;SDS011;7249;49.376;11.080;2024-03-23T04:17:38;8.40;;;4.30;;
14330;SDS011;7249;49.376;11.080;2024-03-23T04:20:04;5.73;;;4.10;;
14330;SDS011;7249;49.376;11.080;2024-03-23T04:22:34;4.50;;;3.60;;
14330;SDS011;7249;49.376;11.080;2024-03-23T04:25:00;8.07;;;4.17;;
14330;SDS011;7249;49.376;11.080;2024-03-23T04:27:31;5.90;;;3.97;;
14330;SDS011;7249;49.376;11.080;2024-03-23T04:29:58;8.57;;;4.27;;
14330;SDS011;7249;49.376;11.080;2024-03-23T04:32:26;6.40;;;4.20;;
14330;SDS011;7249;49.376;11.080;2024-03-23T04:34:51;10.50;;;4.00;;
14330;SDS011;7249;49.376;11.080;2024-03-23T04:37:17;5.73;;;4.13;;
14330;SDS011;7249;49.376;11.080;2024-03-23T04:39:43;7.80;;;3.63;;
14330;SDS011;7249;49.376;11.080;2024-03-23T04:42:08;8.50;;;3.93;;
14330;SDS011;7249;49.376;11.080;2024-03-23T04:44:34;5.43;;;3.73;;
14330;SDS011;7249;49.376;11.080;2024-03-23T04:47:00;3.83;;;3.20;;
14330;SDS011;7249;49.376;11.080;2024-03-23T04:49:26;7.47;;;4.33;;
14330;SDS011;7249;49.376;11.080;2024-03-23T04:51:52;4.53;;;3.10;;
14330;SDS011;7249;49.376;11.080;2024-03-23T04:54:17;5.27;;;3.67;;
14330;SDS011;7249;49.376;11.080;2024-03-23T04:56:43;5.87;;;3.83;;
14330;SDS011;7249;49.376;11.080;2024-03-23T04:59:09;6.10;;;3.83;;
14330;SDS011;7249;49.376;11.080;2024-03-23T05:01:34;6.13;;;3.43;;
14330;SDS011;7249;49.376;11.080;2024-03-23T05:04:00;6.27;;;3.50;;
14330;SDS011;7249;49.376;11.080;2024-03-23T05:06:26;5.13;;;3.67;;
14330;SDS011;7249;49.376;11.080;2024-03-23T05:08:52;4.20;;;3.30;;
14330;SDS011;7249;49.376;11.080;2024-03-23T05:11:18;4.07;;;3.17;;
14330;SDS011;7249;49.376;11.080;2024-03-23T05:13:43;3.73;;;3.20;;
14330;SDS011;7249;49.376;11.080;2024-03-23T05:16:10;5.33;;;3.27;;
14330;SDS011;7249;49.376;11.080;2024-03-23T05:18:36;4.40;;;3.00;;
14330;SDS011;7249;49.376;11.080;2024-03-23T05:21:01;5.13;;;3.07;;
14330;SDS011;7249;49.376;11.080;2024-03-23T05:23:30;6.80;;;3.60;;
14330;SDS011;7249;49.376;11.080;2024-03-23T05:25:56;4.67;;;3.27;;
14330;SDS011;7249;49.376;11.080;2024-03-23T05:28:22;5.53;;;3.57;;
14330;SDS011;7249;49.376;11.080;2024-03-23T05:30:52;5.63;;;3.27;;
14330;SDS011;7249;49.376;11.080;2024-03-23T05:33:18;3.90;;;3.30;;
14330;SDS011;7249;49.376;11.080;2024-03-23T05:35:44;3.20;;;2.83;;
14330;SDS011;7249;49.376;11.080;2024-03-23T05:38:10;7.27;;;3.57;;
14330;SDS011;7249;49.376;11.080;2024-03-23T05:40:36;5.30;;;3.87;;
14330;SDS011;7249;49.376;11.080;2024-03-23T05:43:02;6.63;;;3.50;;
14330;SDS011;7249;49.376;11.080;2024-03-23T05:45:29;4.20;;;3.10;;
14330;SDS011;7249;49.376;11.080;2024-03-23T05:47:54;5.00;;;3.63;;
14330;SDS011;7249;49.376;11.080;2024-03-23T05:50:22;4.27;;;3.00;;
14330;SDS011;7249;49.376;11.080;2024-03-23T05:52:48;4.77;;;3.27;;
14330;SDS011;7249;49.376;11.080;2024-03-23T05:55:14;3.47;;;2.50;;
14330;SDS011;7249;49.376;11.080;2024-03-23T05:57:40;4.30;;;3.10;;
14330;SDS011;7249;49.376;11.080;2024-03-23T06:00:06;3.00;;;2.70;;
14330;SDS011;7249;49.376;11.080;2024-03-23T06:02:40;3.80;;;2.70;;
14330;SDS011;7249;49.376;11.080;2024-03-23T06:05:09;2.97;;;2.57;;
14330;SDS011;7249;49.376;11.080;2024-03-23T06:07:37;4.50;;;2.60;;
14330;SDS011;7249;49.376;11.080;2024-03-23T06:10:04;4.97;;;2.83;;
14330;SDS011;7249;49.376;11.080;2024-03-23T06:12:30;3.27;;;2.50;;
14330;SDS011;7249;49.376;11.080;2024-03-23T06:14:56;3.10;;;2.20;;
14330;SDS011;7249;49.376;11.080;2024-03-23T06:17:22;2.37;;;2.10;;
14330;SDS011;7249;49.376;11.080;2024-03-23T06:19:48;2.27;;;2.07;;
14330;SDS011;7249;49.376;11.080;2024-03-23T06:22:14;3.47;;;2.30;;
14330;SDS011;7249;49.376;11.080;2024-03-23T06:24:40;4.73;;;2.77;;
14330;SDS011;7249;49.376;11.080;2024-03-23T06:27:05;3.87;;;2.97;;
14330;SDS011;7249;49.376;11.080;2024-03-23T06:29:31;3.70;;;2.73;;
14330;SDS011;7249;49.376;11.080;2024-03-23T06:31:57;5.63;;;3.20;;
14330;SDS011;7249;49.376;11.080;2024-03-23T06:34:23;7.00;;;3.93;;
14330;SDS011;7249;49.376;11.080;2024-03-23T06:36:49;5.60;;;3.23;;
14330;SDS011;7249;49.376;11.080;2024-03-23T06:39:15;4.67;;;3.17;;
14330;SDS011;7249;49.376;11.080;2024-03-23T06:41:44;6.40;;;3.80;;
14330;SDS011;7249;49.376;11.080;2024-03-23T06:44:17;4.20;;;3.10;;
14330;SDS011;7249;49.376;11.080;2024-03-23T06:46:44;5.73;;;3.97;;
14330;SDS011;7249;49.376;11.080;2024-03-23T06:49:10;6.50;;;3.63;;
14330;SDS011;7249;49.376;11.080;2024-03-23T06:51:35;4.40;;;3.23;;
14330;SDS011;7249;49.376;11.080;2024-03-23T06:54:02;5.17;;;3.40;;
14330;SDS011;7249;49.376;11.080;2024-03-23T06:56:29;4.80;;;3.23;;
14330;SDS011;7249;49.376;11.080;2024-03-23T06:58:55;5.43;;;3.73;;
14330;SDS011;7249;49.376;11.080;2024-03-23T07:01:21;6.40;;;3.70;;
14330;SDS011;7249;49.376;11.080;2024-03-23T07:03:47;4.87;;;3.60;;
14330;SDS011;7249;49.376;11.080;2024-03-23T07:06:13;6.20;;;3.80;;
14330;SDS011;7249;49.376;11.080;2024-03-23T07:08:39;5.60;;;4.00;;
14330;SDS011;7249;49.376;11.080;2024-03-23T07:11:04;7.43;;;4.00;;
14330;SDS011;7249;49.376;11.080;2024-03-23T07:13:30;5.33;;;3.50;;
14330;SDS011;7249;49.376;11.080;2024-03-23T07:15:56;5.20;;;3.87;;
14330;SDS011;7249;49.376;11.080;2024-03-23T07:18:23;4.57;;;3.33;;
14330;SDS011;7249;49.376;11.080;2024-03-23T07:20:52;5.57;;;3.30;;
14330;SDS011;7249;49.376;11.080;2024-03-23T07:23:22;5.97;;;3.33;;
14330;SDS011;7249;49.376;11.080;2024-03-23T07:25:57;4.33;;;2.97;;
14330;SDS011;7249;49.376;11.080;2024-03-23T07:28:24;6.07;;;3.60;;
14330;SDS011;7249;49.376;11.080;2024-03-23T07:33:31;4.90;;;3.17;;
14330;SDS011;7249;49.376;11.080;2024-03-23T07:35:58;6.70;;;3.23;;
14330;SDS011;7249;49.376;11.080;2024-03-23T07:38:27;5.40;;;3.30;;
14330;SDS011;7249;49.376;11.080;2024-03-23T07:41:09;5.40;;;2.90;;
14330;SDS011;7249;49.376;11.080;2024-03-23T07:43:39;3.90;;;3.00;;
14330;SDS011;7249;49.376;11.080;2024-03-23T07:46:08;3.90;;;3.10;;
14330;SDS011;7249;49.376;11.080;2024-03-23T07:48:34;4.67;;;2.90;;
14330;SDS011;7249;49.376;11.080;2024-03-23T07:51:00;4.77;;;2.90;;
14330;SDS011;7249;49.376;11.080;2024-03-23T07:53:33;4.90;;;2.97;;
14330;SDS011;7249;49.376;11.080;2024-03-23T07:56:01;4.67;;;3.53;;
14330;SDS011;7249;49.376;11.080;2024-03-23T07:58:30;5.53;;;3.23;;
14330;SDS011;7249;49.376;11.080;2024-03-23T08:00:56;3.37;;;2.63;;
14330;SDS011;7249;49.376;11.080;2024-03-23T08:03:28;5.53;;;3.43;;
14330;SDS011;7249;49.376;11.080;2024-03-23T08:05:53;4.90;;;2.83;;
14330;SDS011;7249;49.376;11.080;2024-03-23T08:08:19;4.27;;;2.87;;
14330;SDS011;7249;49.376;11.080;2024-03-23T08:10:48;5.93;;;3.07;;
14330;SDS011;7249;49.376;11.080;2024-03-23T08:13:15;3.17;;;2.57;;
14330;SDS011;7249;49.376;11.080;2024-03-23T08:15:41;3.17;;;1.90;;
14330;SDS011;7249;49.376;11.080;2024-03-23T08:18:07;4.50;;;2.50;;
14330;SDS011;7249;49.376;11.080;2024-03-23T08:20:32;4.67;;;2.60;;
14330;SDS011;7249;49.376;11.080;2024-03-23T08:22:58;3.00;;;2.20;;
14330;SDS011;7249;49.376;11.080;2024-03-23T08:25:23;3.50;;;2.20;;
14330;SDS011;7249;49.376;11.080;2024-03-23T08:27:49;4.93;;;2.43;;
14330;SDS011;7249;49.376;11.080;2024-03-23T08:30:15;2.47;;;1.67;;
14330;SDS011;7249;49.376;11.080;2024-03-23T08:32:41;2.27;;;1.50;;
14330;SDS011;7249;49.376;11.080;2024-03-23T08:35:07;2.60;;;1.77;;
14330;SDS011;7249;49.376;11.080;2024-03-23T08:37:33;3.17;;;1.80;;
14330;SDS011;7249;49.376;11.080;2024-03-23T08:39:59;1.97;;;1.47;;
14330;SDS011;7249;49.376;11.080;2024-03-23T08:42:24;2.10;;;1.70;;
14330;SDS011;7249;49.376;11.080;2024-03-23T08:44:50;2.83;;;2.10;;
14330;SDS011;7249;49.376;11.080;2024-03-23T08:47:15;2.27;;;1.40;;
14330;SDS011;7249;49.376;11.080;2024-03-23T08:49:41;2.30;;;1.80;;
14330;SDS011;7249;49.376;11.080;2024-03-23T08:52:07;1.50;;;1.37;;
14330;SDS011;7249;49.376;11.080;2024-03-23T08:54:33;1.23;;;1.13;;
14330;SDS011;7249;49.376;11.080;2024-03-23T08:56:59;2.20;;;1.30;;
14330;SDS011;7249;49.376;11.080;2024-03-23T08:59:25;1.93;;;1.50;;
14330;SDS011;7249;49.376;11.080;2024-03-23T09:01:51;1.10;;;1.00;;
14330;SDS011;7249;49.376;11.080;2024-03-23T09:04:17;1.53;;;1.20;;
14330;SDS011;7249;49.376;11.080;2024-03-23T09:06:42;1.63;;;1.00;;
14330;SDS011;7249;49.376;11.080;2024-03-23T09:09:08;1.20;;;1.10;;
14330;SDS011;7249;49.376;11.080;2024-03-23T09:11:34;0.90;;;0.90;;
14330;SDS011;7249;49.376;11.080;2024-03-23T09:14:00;1.13;;;1.03;;
14330;SDS011;7249;49.376;11.080;2024-03-23T09:16:25;1.00;;;1.00;;
14330;SDS011;7249;49.376;11.080;2024-03-23T09:18:51;0.93;;;0.93;;
14330;SDS011;7249;49.376;11.080;2024-03-23T09:21:17;0.67;;;0.67;;
14330;SDS011;7249;49.376;11.080;2024-03-23T09:23:44;0.60;;;0.60;;
14330;SDS011;7249;49.376;11.080;2024-03-23T09:26:10;0.80;;;0.80;;
14330;SDS011;7249;49.376;11.080;2024-03-23T09:28:36;0.60;;;0.60;;
14330;SDS011;7249;49.376;11.080;2024-03-23T09:31:05;0.70;;;0.70;;
14330;SDS011;7249;49.376;11.080;2024-03-23T09:33:40;0.73;;;0.73;;
14330;SDS011;7249;49.376;11.080;2024-03-23T09:36:06;0.70;;;0.70;;
14330;SDS011;7249;49.376;11.080;2024-03-23T09:38:33;1.10;;;0.80;;
14330;SDS011;7249;49.376;11.080;2024-03-23T09:40:59;0.87;;;0.70;;
14330;SDS011;7249;49.376;11.080;2024-03-23T09:43:24;0.63;;;0.63;;
14330;SDS011;7249;49.376;11.080;2024-03-23T09:45:50;0.40;;;0.40;;
14330;SDS011;7249;49.376;11.080;2024-03-23T09:48:18;0.70;;;0.70;;
14330;SDS011;7249;49.376;11.080;2024-03-23T09:50:44;0.60;;;0.60;;
14330;SDS011;7249;49.376;11.080;2024-03-23T09:53:11;0.47;;;0.47;;
14330;SDS011;7249;49.376;11.080;2024-03-23T09:55:38;0.50;;;0.50;;
14330;SDS011;7249;49.376;11.080;2024-03-23T09:58:05;1.23;;;0.60;;
14330;SDS011;7249;49.376;11.080;2024-03-23T10:00:34;0.50;;;0.50;;
14330;SDS011;7249;49.376;11.080;2024-03-23T10:03:00;1.40;;;0.53;;
14330;SDS011;7249;49.376;11.080;2024-03-23T10:05:30;0.40;;;0.40;;
14330;SDS011;7249;49.376;11.080;2024-03-23T10:10:39;0.33;;;0.30;;
14330;SDS011;7249;49.376;11.080;2024-03-23T10:13:05;0.37;;;0.37;;
14330;SDS011;7249;49.376;11.080;2024-03-23T10:15:33;0.33;;;0.33;;
14330;SDS011;7249;49.376;11.080;2024-03-23T10:18:06;0.47;;;0.47;;
14330;SDS011;7249;49.376;11.080;2024-03-23T10:20:43;0.50;;;0.50;;
14330;SDS011;7249;49.376;11.080;2024-03-23T10:23:17;0.67;;;0.67;;
14330;SDS011;7249;49.376;11.080;2024-03-23T10:26:15;0.60;;;0.60;;
14330;SDS011;7249;49.376;11.080;2024-03-23T10:29:02;1.87;;;0.70;;
14330;SDS011;7249;49.376;11.080;2024-03-23T10:32:09;0.33;;;0.33;;
14330;SDS011;7249;49.376;11.080;2024-03-23T10:34:55;0.40;;;0.40;;
14330;SDS011;7249;49.376;11.080;2024-03-23T10:37:42;0.60;;;0.60;;
14330;SDS011;7249;49.376;11.080;2024-03-23T10:40:28;0.77;;;0.77;;
14330;SDS011;7249;49.376;11.080;2024-03-23T10:43:15;0.63;;;0.63;;
14330;SDS011;7249;49.376;11.080;2024-03-23T10:46:02;0.83;;;0.73;;
14330;SDS011;7249;49.376;11.080;2024-03-23T10:48:48;0.70;;;0.70;;
14330;SDS011;7249;49.376;11.080;2024-03-23T10:51:34;1.03;;;0.80;;
14330;SDS011;7249;49.376;11.080;2024-03-23T10:54:20;1.27;;;0.80;;
14330;SDS011;7249;49.376;11.080;2024-03-23T10:57:15;3.03;;;1.13;;
14330;SDS011;7249;49.376;11.080;2024-03-23T11:00:05;0.80;;;0.80;;
14330;SDS011;7249;49.376;11.080;2024-03-23T11:02:52;1.70;;;0.90;;
14330;SDS011;7249;49.376;11.080;2024-03-23T11:05:38;0.60;;;0.60;;
14330;SDS011;7249;49.376;11.080;2024-03-23T11:08:30;0.73;;;0.63;;
14330;SDS011;7249;49.376;11.080;2024-03-23T11:11:24;1.10;;;0.88;;
14330;SDS011;7249;49.376;11.080;2024-03-23T11:14:13;3.03;;;0.75;;
14330;SDS011;7249;49.376;11.080;2024-03-23T11:17:09;0.80;;;0.80;;
14330;SDS011;7249;49.376;11.080;2024-03-23T11:22:44;1.05;;;0.98;;
14330;SDS011;7249;49.376;11.080;2024-03-23T11:25:32;2.45;;;1.10;;
14330;SDS011;7249;49.376;11.080;2024-03-23T11:28:18;0.90;;;0.80;;
14330;SDS011;7249;49.376;11.080;2024-03-23T11:31:09;1.05;;;0.90;;
14330;SDS011;7249;49.376;11.080;2024-03-23T11:34:05;2.53;;;0.70;;
14330;SDS011;7249;49.376;11.080;2024-03-23T11:36:53;1.58;;;1.00;;
14330;SDS011;7249;49.376;11.080;2024-03-23T11:39:49;1.45;;;0.80;;
14330;SDS011;7249;49.376;11.080;2024-03-23T11:42:35;2.55;;;0.85;;
14330;SDS011;7249;49.376;11.080;2024-03-23T11:45:21;3.25;;;1.13;;
14330;SDS011;7249;49.376;11.080;2024-03-23T11:50:55;1.90;;;1.27;;
14330;SDS011;7249;49.376;11.080;2024-03-23T11:53:45;1.50;;;0.98;;
14330;SDS011;7249;49.376;11.080;2024-03-23T11:56:31;1.05;;;1.00;;
14330;SDS011;7249;49.376;11.080;2024-03-23T11:59:29;1.05;;;0.98;;
14330;SDS011;7249;49.376;11.080;2024-03-23T12:02:17;1.13;;;0.70;;
14330;SDS011;7249;49.376;11.080;2024-03-23T12:05:16;1.20;;;1.00;;
14330;SDS011;7249;49.376;11.080;2024-03-23T12:11:08;0.90;;;0.90;;
14330;SDS011;7249;49.376;11.080;2024-03-23T12:13:55;1.30;;;0.90;;
14330;SDS011;7249;49.376;11.080;2024-03-23T12:16:45;1.50;;;1.10;;
14330;SDS011;7249;49.376;11.080;2024-03-23T12:19:31;1.63;;;1.15;;
14330;SDS011;7249;49.376;11.080;2024-03-23T12:22:19;1.65;;;1.23;;
14330;SDS011;7249;49.376;11.080;2024-03-23T12:25:06;3.03;;;1.10;;
14330;SDS011;7249;49.376;11.080;2024-03-23T12:27:52;1.25;;;1.15;;
14330;SDS011;7249;49.376;11.080;2024-03-23T12:30:38;1.13;;;1.00;;
14330;SDS011;7249;49.376;11.080;2024-03-23T12:33:25;1.23;;;0.80;;
14330;SDS011;7249;49.376;11.080;2024-03-23T12:36:11;2.07;;;1.00;;
14330;SDS011;7249;49.376;11.080;2024-03-23T12:38:57;1.40;;;1.30;;
14330;SDS011;7249;49.376;11.080;2024-03-23T12:41:42;2.47;;;1.10;;
14330;SDS011;7249;49.376;11.080;2024-03-23T12:44:28;1.23;;;1.00;;
14330;SDS011;7249;49.376;11.080;2024-03-23T12:47:14;4.25;;;1.40;;
14330;SDS011;7249;49.376;11.080;2024-03-23T12:50:00;2.83;;;1.30;;
14330;SDS011;7249;49.376;11.080;2024-03-23T12:52:46;1.20;;;0.93;;
14330;SDS011;7249;49.376;11.080;2024-03-23T12:55:34;1.38;;;1.27;;
14330;SDS011;7249;49.376;11.080;2024-03-23T12:58:21;1.40;;;1.13;;
14330;SDS011;7249;49.376;11.080;2024-03-23T13:01:06;2.88;;;1.10;;
14330;SDS011;7249;49.376;11.080;2024-03-23T13:03:52;2.35;;;1.23;;
14330;SDS011;7249;49.376;11.080;2024-03-23T13:06:38;2.00;;;1.02;;
14330;SDS011;7249;49.376;11.080;2024-03-23T13:09:25;3.20;;;1.38;;
14330;SDS011;7249;49.376;11.080;2024-03-23T13:12:11;2.40;;;1.25;;
14330;SDS011;7249;49.376;11.080;2024-03-23T13:15:00;1.63;;;1.35;;
14330;SDS011;7249;49.376;11.080;2024-03-23T13:17:46;3.15;;;1.35;;
14330;SDS011;7249;49.376;11.080;2024-03-23T13:20:35;2.40;;;0.98;;
14330;SDS011;7249;49.376;11.080;2024-03-23T13:23:21;2.83;;;0.90;;
14330;SDS011;7249;49.376;11.080;2024-03-23T13:26:07;1.67;;;1.10;;
14330;SDS011;7249;49.376;11.080;2024-03-23T13:28:53;2.35;;;1.20;;
14330;SDS011;7249;49.376;11.080;2024-03-23T13:31:39;1.13;;;1.00;;
14330;SDS011;7249;49.376;11.080;2024-03-23T13:34:25;1.50;;;0.98;;
14330;SDS011;7249;49.376;11.080;2024-03-23T13:37:10;2.35;;;1.38;;
14330;SDS011;7249;49.376;11.080;2024-03-23T13:39:56;3.25;;;0.85;;
14330;SDS011;7249;49.376;11.080;2024-03-23T13:42:42;1.55;;;1.05;;
14330;SDS011;7249;49.376;11.080;2024-03-23T13:45:28;1.67;;;1.30;;
14330;SDS011;7249;49.376;11.080;2024-03-23T13:48:15;2.65;;;1.35;;
14330;SDS011;7249;49.376;11.080;2024-03-23T13:51:04;2.88;;;1.13;;
14330;SDS011;7249;49.376;11.080;2024-03-23T13:53:50;2.20;;;1.20;;
14330;SDS011;7249;49.376;11.080;2024-03-23T13:56:36;2.97;;;1.05;;
14330;SDS011;7249;49.376;11.080;2024-03-23T13:59:22;2.55;;;1.40;;
14330;SDS011;7249;49.376;11.080;2024-03-23T14:02:09;6.38;;;1.30;;
14330;SDS011;7249;49.376;11.080;2024-03-23T14:04:57;1.60;;;1.10;;
14330;SDS011;7249;49.376;11.080;2024-03-23T14:07:42;1.25;;;0.95;;
14330;SDS011;7249;49.376;11.080;2024-03-23T14:10:28;0.98;;;0.90;;
14330;SDS011;7249;49.376;11.080;2024-03-23T14:13:14;2.00;;;1.20;;
14330;SDS011;7249;49.376;11.080;2024-03-23T14:16:01;1.17;;;1.08;;
14330;SDS011;7249;49.376;11.080;2024-03-23T14:18:47;1.35;;;1.10;;
14330;SDS011;7249;49.376;11.080;2024-03-23T14:21:33;2.05;;;1.10;;
14330;SDS011;7249;49.376;11.080;2024-03-23T14:24:22;1.00;;;0.90;;
14330;SDS011;7249;49.376;11.080;2024-03-23T14:27:09;2.95;;;1.02;;
14330;SDS011;7249;49.376;11.080;2024-03-23T14:29:55;1.30;;;1.08;;
14330;SDS011;7249;49.376;11.080;2024-03-23T14:32:41;1.27;;;1.08;;
14330;SDS011;7249;49.376;11.080;2024-03-23T14:35:27;3.15;;;1.02;;
14330;SDS011;7249;49.376;11.080;2024-03-23T14:38:13;1.83;;;1.02;;
14330;SDS011;7249;49.376;11.080;2024-03-23T14:41:00;2.53;;;1.00;;
14330;SDS011;7249;49.376;11.080;2024-03-23T14:43:47;1.23;;;0.82;;
14330;SDS011;7249;49.376;11.080;2024-03-23T14:46:35;3.20;;;1.10;;
14330;SDS011;7249;49.376;11.080;2024-03-23T14:49:21;2.78;;;0.90;;
14330;SDS011;7249;49.376;11.080;2024-03-23T14:52:07;2.28;;;0.90;;
14330;SDS011;7249;49.376;11.080;2024-03-23T14:54:54;1.20;;;1.02;;
14330;SDS011;7249;49.376;11.080;2024-03-23T14:57:42;1.13;;;0.88;;
14330;SDS011;7249;49.376;11.080;2024-03-23T15:00:27;1.60;;;0.95;;
14330;SDS011;7249;49.376;11.080;2024-03-23T15:03:13;1.20;;;1.10;;
14330;SDS011;7249;49.376;11.080;2024-03-23T15:06:00;1.20;;;0.90;;
14330;SDS011;7249;49.376;11.080;2024-03-23T15:08:47;4.30;;;1.38;;
14330;SDS011;7249;49.376;11.080;2024-03-23T15:11:32;2.53;;;1.40;;
14330;SDS011;7249;49.376;11.080;2024-03-23T15:14:18;4.33;;;1.57;;
14330;SDS011;7249;49.376;11.080;2024-03-23T15:17:05;3.77;;;1.20;;
14330;SDS011;7249;49.376;11.080;2024-03-23T15:19:52;2.03;;;1.33;;
14330;SDS011;7249;49.376;11.080;2024-03-23T15:22:41;2.73;;;1.33;;
14330;SDS011;7249;49.376;11.080;2024-03-23T15:25:27;1.13;;;1.03;;
14330;SDS011;7249;49.376;11.080;2024-03-23T15:28:13;1.10;;;0.97;;
14330;SDS011;7249;49.376;11.080;2024-03-23T15:30:59;0.80;;;0.80;;
14330;SDS011;7249;49.376;11.080;2024-03-23T15:33:45;3.13;;;1.00;;
14330;SDS011;7249;49.376;11.080;2024-03-23T15:36:31;2.03;;;0.90;;
14330;SDS011;7249;49.376;11.080;2024-03-23T15:39:17;0.93;;;0.80;;
14330;SDS011;7249;49.376;11.080;2024-03-23T15:42:03;2.90;;;0.80;;
14330;SDS011;7249;49.376;11.080;2024-03-23T15:44:49;1.48;;;0.90;;
14330;SDS011;7249;49.376;11.080;2024-03-23T15:47:35;1.20;;;0.80;;
14330;SDS011;7249;49.376;11.080;2024-03-23T15:50:21;0.70;;;0.70;;
14330;SDS011;7249;49.376;11.080;2024-03-23T15:53:07;0.80;;;0.80;;
14330;SDS011;7249;49.376;11.080;2024-03-23T15:55:59;1.80;;;1.10;;
14330;SDS011;7249;49.376;11.080;2024-03-23T15:58:46;2.63;;;0.97;;
14330;SDS011;7249;49.376;11.080;2024-03-23T16:01:33;2.33;;;1.00;;
14330;SDS011;7249;49.376;11.080;2024-03-23T16:04:20;1.17;;;1.07;;
14330;SDS011;7249;49.376;11.080;2024-03-23T16:07:06;1.20;;;1.10;;
14330;SDS011;7249;49.376;11.080;2024-03-23T16:09:52;2.00;;;1.30;;
14330;SDS011;7249;49.376;11.080;2024-03-23T16:12:38;1.87;;;1.03;;
14330;SDS011;7249;49.376;11.080;2024-03-23T16:15:24;1.57;;;0.90;;
14330;SDS011;7249;49.376;11.080;2024-03-23T16:18:10;1.20;;;1.03;;
14330;SDS011;7249;49.376;11.080;2024-03-23T16:20:57;1.00;;;0.90;;
14330;SDS011;7249;49.376;11.080;2024-03-23T16:23:47;1.13;;;1.00;;
14330;SDS011;7249;49.376;11.080;2024-03-23T16:26:33;0.73;;;0.73;;
14330;SDS011;7249;49.376;11.080;2024-03-23T16:29:19;3.00;;;1.70;;
14330;SDS011;7249;49.376;11.080;2024-03-23T16:32:05;2.17;;;1.13;;
14330;SDS011;7249;49.376;11.080;2024-03-23T16:34:51;1.20;;;1.00;;
14330;SDS011;7249;49.376;11.080;2024-03-23T16:37:37;6.23;;;1.23;;